Time;durP1;ratioP1;P1;durP2;ratioP2;P2;SDS_P1;SDS_P2;PMS_P1;PMS_P2;Temp;Humidity;BMP_temperature;BMP_pressure;BME280_temperature;BME280_humidity;BME280_pressure;Samples;Min_cycle;Max_cycle;Signal;HPM_P1;HPM_P2
2022/10/27 00:01:05;;;;;;;30.88;27.98;;;;;;;16.76;66.14;102007.00;4977520;28;20043;-71
2022/10/27 00:03:31;;;;;;;29.85;27.63;;;;;;;16.75;66.20;102008.88;4976408;28;20039;-70
2022/10/27 00:06:01;;;;;;;31.80;29.50;;;;;;;16.75;66.34;102008.06;4977800;28;20037;-70
2022/10/27 00:08:26;;;;;;;29.77;28.13;;;;;;;16.73;66.44;102010.22;4977553;28;20026;-70
2022/10/27 00:10:57;;;;;;;30.15;28.35;;;;;;;16.73;66.31;102010.22;4977563;28;20038;-70
2022/10/27 00:13:23;;;;;;;29.95;27.95;;;;;;;16.71;65.97;102006.94;4977348;28;20199;-72
2022/10/27 00:16:03;;;;;;;30.55;28.85;;;;;;;16.70;66.21;102019.72;4977572;28;20062;-70
2022/10/27 00:18:29;;;;;;;29.95;27.80;;;;;;;16.69;65.81;102018.09;4977235;28;20089;-70
2022/10/27 00:21:06;;;;;;;29.52;27.98;;;;;;;16.69;66.34;102009.91;4977744;28;20030;-69
2022/10/27 00:23:32;;;;;;;30.20;28.25;;;;;;;16.68;66.02;102016.41;4977768;28;20026;-70
2022/10/27 00:25:59;;;;;;;29.75;28.05;;;;;;;16.67;66.05;102017.50;4977137;28;20039;-72
2022/10/27 00:28:27;;;;;;;31.27;28.85;;;;;;;16.66;66.09;102015.88;4977081;28;20046;-71
2022/10/27 00:31:09;;;;;;;30.30;28.48;;;;;;;16.65;65.91;102025.13;4977000;28;20035;-71
2022/10/27 00:33:35;;;;;;;30.88;29.02;;;;;;;16.64;66.33;102016.13;4977041;28;20027;-72
2022/10/27 00:36:09;;;;;;;29.85;27.98;;;;;;;16.63;65.86;102017.22;4976862;28;20119;-74
2022/10/27 00:38:35;;;;;;;28.88;27.27;;;;;;;16.63;65.92;102016.34;4975645;28;20463;-71
2022/10/27 00:41:01;;;;;;;29.48;27.58;;;;;;;16.61;65.89;102030.25;4975058;28;20062;-75
2022/10/27 00:43:34;;;;;;;30.05;28.42;;;;;;;16.60;66.31;102027.78;4976795;28;20066;-70
2022/10/27 00:46:29;;;;;;;29.55;28.00;;;;;;;16.60;65.92;102033.22;4976827;28;20062;-73
2022/10/27 00:48:59;;;;;;;32.47;29.88;;;;;;;16.60;65.76;102036.78;4969728;28;20069;-70
2022/10/27 00:51:25;;;;;;;30.02;28.23;;;;;;;16.59;65.98;102032.41;4977408;28;20047;-71
2022/10/27 00:53:51;;;;;;;29.92;28.33;;;;;;;16.59;66.25;102035.16;4976648;28;20059;-69
2022/10/27 00:56:18;;;;;;;33.28;31.02;;;;;;;16.56;66.21;102027.47;4976278;28;20039;-70
2022/10/27 00:58:45;;;;;;;29.85;28.05;;;;;;;16.57;66.01;102031.00;4976518;28;20483;-69
2022/10/27 01:01:11;;;;;;;30.02;28.00;;;;;;;16.55;66.23;102030.44;4976892;28;20058;-70
2022/10/27 01:03:37;;;;;;;30.20;28.40;;;;;;;16.56;65.97;102037.56;4976704;28;20406;-71
2022/10/27 01:06:03;;;;;;;28.80;27.20;;;;;;;16.54;66.21;102040.53;4976680;28;20463;-75
2022/10/27 01:08:29;;;;;;;29.38;27.40;;;;;;;16.53;66.39;102038.88;4976045;28;20479;-71
2022/10/27 01:10:54;;;;;;;31.10;29.35;;;;;;;16.52;66.04;102037.22;4976487;28;20035;-70
2022/10/27 01:13:20;;;;;;;31.05;29.05;;;;;;;16.52;66.46;102037.22;4975938;28;20478;-70
2022/10/27 01:15:52;;;;;;;28.80;27.10;;;;;;;16.52;65.93;102039.94;4976520;28;20047;-70
2022/10/27 01:18:20;;;;;;;30.35;28.58;;;;;;;16.51;66.39;102043.75;4976679;28;20027;-72
2022/10/27 01:21:23;;;;;;;31.30;29.10;;;;;;;16.50;66.41;102036.63;4976140;28;20108;-71
2022/10/27 01:24:05;;;;;;;29.58;27.67;;;;;;;16.50;66.35;102041.28;4975342;28;20026;-70
2022/10/27 01:26:48;;;;;;;28.90;27.30;;;;;;;16.48;66.44;102044.28;4976214;28;20493;-71
2022/10/27 01:29:44;;;;;;;30.33;28.48;;;;;;;16.47;66.15;102036.31;4975985;28;20062;-70
2022/10/27 01:32:21;;;;;;;30.92;29.17;;;;;;;16.46;66.11;102040.13;4976072;28;20030;-70
2022/10/27 01:34:58;;;;;;;29.15;27.45;;;;;;;16.45;66.19;102036.56;4975896;28;20541;-71
2022/10/27 01:37:35;;;;;;;30.23;28.38;;;;;;;16.43;66.07;102042.28;4975547;28;20023;-70
2022/10/27 01:40:16;;;;;;;30.10;28.10;;;;;;;16.42;65.94;102040.63;4975729;28;20085;-70
2022/10/27 01:42:48;;;;;;;28.77;27.20;;;;;;;16.42;65.88;102039.81;4976027;28;20046;-70
2022/10/27 01:45:20;;;;;;;30.35;28.50;;;;;;;16.41;65.85;102044.44;4976382;28;20085;-70
2022/10/27 01:47:47;;;;;;;29.08;27.33;;;;;;;16.41;65.87;102047.16;4975690;28;20062;-69
2022/10/27 01:50:16;;;;;;;30.08;28.17;;;;;;;16.41;65.94;102047.16;4975268;28;20050;-69
2022/10/27 01:52:43;;;;;;;29.63;28.02;;;;;;;16.40;66.35;102033.75;4975512;28;20023;-70
2022/10/27 01:55:14;;;;;;;29.63;28.00;;;;;;;16.39;66.39;102032.94;4975358;28;20027;-71
2022/10/27 01:58:14;;;;;;;29.25;27.52;;;;;;;16.40;66.01;102031.03;4975222;28;20054;-70
2022/10/27 02:00:51;;;;;;;30.25;28.45;;;;;;;16.38;66.05;102025.03;4975742;28;20035;-70
2022/10/27 02:03:21;;;;;;;31.25;29.23;;;;;;;16.36;66.27;102035.34;4975070;28;20086;-70
2022/10/27 02:06:03;;;;;;;29.52;27.83;;;;;;;16.36;66.04;102025.28;4974647;28;20026;-71
2022/10/27 02:08:34;;;;;;;31.92;29.77;;;;;;;16.35;66.17;102026.31;4974516;28;20379;-71
2022/10/27 02:11:03;;;;;;;31.02;28.73;;;;;;;16.35;66.42;102017.31;4975112;28;20026;-72
2022/10/27 02:13:36;;;;;;;30.15;28.10;;;;;;;16.34;66.52;102019.22;4975110;28;20037;-70
2022/10/27 02:16:08;;;;;;;30.48;28.35;;;;;;;16.34;66.31;102021.97;4975120;28;20439;-71
2022/10/27 02:18:41;;;;;;;30.73;28.75;;;;;;;16.34;66.22;102018.41;4975128;28;20023;-70
2022/10/27 02:21:10;;;;;;;30.25;28.25;;;;;;;16.32;66.07;102010.47;4975900;28;20105;-69
2022/10/27 02:23:35;;;;;;;;;;;;;;;16.31;65.94;102014.28;4975613;28;20038;-71
2022/10/27 02:26:38;;;;;;;28.58;26.88;;;;;;;16.29;65.84;102010.97;4975047;28;19914;-70
2022/10/27 02:29:14;;;;;;;30.30;28.17;;;;;;;16.28;65.97;102017.53;4975085;28;20039;-70
2022/10/27 02:31:44;;;;;;;29.95;28.15;;;;;;;16.27;66.11;102012.31;4974927;28;20035;-69
2022/10/27 02:34:10;;;;;;;32.15;29.50;;;;;;;16.28;66.25;102022.97;4975433;28;20027;-70
2022/10/27 02:36:35;;;;;;;31.35;29.27;;;;;;;16.26;65.99;102016.94;4974206;28;20483;-71
2022/10/27 02:39:01;;;;;;;29.95;28.15;;;;;;;16.26;66.39;102010.66;4974823;28;20073;-70
2022/10/27 02:41:27;;;;;;;32.53;30.38;;;;;;;16.24;66.07;102010.91;4974713;28;20030;-69
2022/10/27 02:43:52;;;;;;;30.35;28.40;;;;;;;16.25;66.41;102015.28;4974751;28;20434;-70
2022/10/27 02:46:17;;;;;;;31.17;29.17;;;;;;;16.23;66.04;102009.28;4974787;28;20378;-69
2022/10/27 02:48:43;;;;;;;30.55;28.85;;;;;;;16.22;66.26;102013.88;4975035;28;20488;-70
2022/10/27 02:51:08;;;;;;;29.42;27.75;;;;;;;16.21;66.24;102009.50;4974955;28;20086;-69
2022/10/27 02:53:34;;;;;;;30.05;28.13;;;;;;;16.21;66.21;102008.69;4975054;28;20066;-71
2022/10/27 02:56:00;;;;;;;31.33;29.38;;;;;;;16.21;66.18;102009.50;4975120;28;20074;-71
2022/10/27 02:58:25;;;;;;;32.28;29.80;;;;;;;16.20;66.01;102007.00;4974323;28;20031;-70
2022/10/27 03:00:57;;;;;;;29.40;27.58;;;;;;;16.19;66.13;101999.94;4974662;28;20038;-69
2022/10/27 03:03:22;;;;;;;31.35;29.38;;;;;;;16.20;66.30;101996.09;4973862;28;20039;-70
2022/10/27 03:05:48;;;;;;;31.23;29.35;;;;;;;16.19;66.14;101991.75;4979079;28;20049;-71
2022/10/27 03:08:14;;;;;;;29.83;28.27;;;;;;;16.19;66.37;101989.03;4978568;28;20035;-75
2022/10/27 03:10:39;;;;;;;29.20;27.45;;;;;;;16.16;65.82;101987.63;4978423;28;20043;-70
2022/10/27 03:13:04;;;;;;;29.98;27.95;;;;;;;16.17;66.11;101977.53;4978466;28;20023;-69
2022/10/27 03:15:30;;;;;;;30.85;29.05;;;;;;;16.15;65.93;101972.34;4978379;28;20118;-74
2022/10/27 03:17:55;;;;;;;28.88;27.27;;;;;;;16.15;66.15;101979.69;4978436;28;20093;-70
2022/10/27 03:20:21;;;;;;;30.77;28.88;;;;;;;16.15;65.82;101976.94;4978218;28;20027;-71
2022/10/27 03:22:46;;;;;;;30.88;28.88;;;;;;;16.14;66.17;101969.88;4978256;28;20579;-70
2022/10/27 03:25:13;;;;;;;28.83;27.13;;;;;;;16.12;66.00;101972.81;4976982;28;20042;-70
2022/10/27 03:27:40;;;;;;;28.67;26.98;;;;;;;16.12;66.36;101972.00;4978165;28;20045;-70
2022/10/27 03:30:07;;;;;;;29.25;27.67;;;;;;;16.12;66.25;101967.38;4976855;28;20399;-70
2022/10/27 03:32:33;;;;;;;30.67;28.83;;;;;;;16.10;66.10;101966.81;4978069;28;20388;-70
2022/10/27 03:34:59;;;;;;;29.10;27.25;;;;;;;16.10;66.17;101963.25;4978327;28;20058;-70
2022/10/27 03:37:24;;;;;;;31.00;29.02;;;;;;;16.10;65.83;101965.97;4977938;28;20051;-70
2022/10/27 03:39:49;;;;;;;30.42;28.55;;;;;;;16.09;66.19;101967.06;4977974;28;20047;-70
2022/10/27 03:42:15;;;;;;;30.70;28.90;;;;;;;16.08;66.10;101965.44;4960659;28;20394;-69
2022/10/27 03:44:40;;;;;;;27.80;26.25;;;;;;;16.07;66.10;101963.75;4976934;28;20382;-70
2022/10/27 03:47:05;;;;;;;28.48;26.98;;;;;;;16.07;65.84;101966.47;4977910;28;20457;-70
2022/10/27 03:49:31;;;;;;;29.80;28.08;;;;;;;16.06;66.09;101962.13;4977475;28;20055;-69
2022/10/27 03:51:56;;;;;;;29.20;27.30;;;;;;;16.05;65.71;101965.91;4961174;28;20106;-71
2022/10/27 03:54:22;;;;;;;30.25;28.63;;;;;;;16.05;66.16;101972.19;4978214;28;20467;-70
2022/10/27 03:56:47;;;;;;;28.33;26.63;;;;;;;16.03;66.06;101966.16;4977953;28;20170;-70
2022/10/27 03:59:12;;;;;;;28.27;26.77;;;;;;;16.02;65.83;101973.50;4977852;28;20066;-70
2022/10/27 04:01:38;;;;;;;28.88;27.17;;;;;;;16.02;65.70;101976.22;4977987;28;20043;-72
2022/10/27 04:04:03;;;;;;;29.23;27.42;;;;;;;16.01;65.99;101974.59;4976349;28;20420;-71
2022/10/27 04:06:30;;;;;;;29.60;27.85;;;;;;;16.01;66.02;101976.50;4960178;28;20123;-71
2022/10/27 04:08:55;;;;;;;29.38;27.30;;;;;;;15.99;65.79;101982.16;4977470;28;20035;-72
2022/10/27 04:11:20;;;;;;;29.15;27.17;;;;;;;15.98;66.05;101983.25;4977823;28;20039;-73
2022/10/27 04:13:46;;;;;;;29.52;27.80;;;;;;;15.98;65.73;101986.00;4976975;28;20089;-69
2022/10/27 04:16:11;;;;;;;29.13;27.23;;;;;;;15.97;65.66;101978.88;4976561;28;20030;-70
2022/10/27 04:18:37;;;;;;;30.05;28.10;;;;;;;15.96;65.98;101990.84;4977268;28;20094;-70
2022/10/27 04:21:04;;;;;;;28.88;27.27;;;;;;;15.95;66.12;101989.22;4977232;28;20038;-70
2022/10/27 04:23:30;;;;;;;30.38;28.50;;;;;;;15.95;66.01;101993.81;4976779;28;20477;-70
2022/10/27 04:25:55;;;;;;;28.40;26.63;;;;;;;15.95;65.83;101996.53;4977157;28;20055;-69
2022/10/27 04:28:21;;;;;;;28.13;26.45;;;;;;;15.94;65.91;101989.44;4977707;28;20399;-69
2022/10/27 04:30:46;;;;;;;27.85;26.35;;;;;;;15.93;66.14;101999.53;4976659;28;20035;-69
2022/10/27 04:33:12;;;;;;;30.10;28.20;;;;;;;15.92;65.71;101997.84;4976749;28;20383;-71
2022/10/27 04:35:37;;;;;;;29.73;27.92;;;;;;;15.91;65.76;101996.22;4976939;28;20066;-69
2022/10/27 04:38:03;;;;;;;27.73;26.23;;;;;;;15.91;65.89;101992.69;4976932;28;20026;-70
2022/10/27 04:40:29;;;;;;;29.65;27.60;;;;;;;15.90;65.55;101997.31;4976453;28;20069;-70
2022/10/27 04:42:54;;;;;;;28.58;26.80;;;;;;;15.89;65.74;101986.66;4976830;28;20042;-70
2022/10/27 04:45:20;;;;;;;27.88;26.40;;;;;;;15.88;65.84;101993.19;4976840;28;20031;-70
2022/10/27 04:47:45;;;;;;;28.77;26.98;;;;;;;15.87;65.92;101994.22;4976930;28;20391;-69
2022/10/27 04:50:12;;;;;;;29.55;27.88;;;;;;;15.86;66.09;101996.16;4976737;28;20053;-69
2022/10/27 04:52:38;;;;;;;29.15;27.45;;;;;;;15.86;65.59;101993.41;4976905;28;20507;-70
2022/10/27 04:55:03;;;;;;;28.15;26.35;;;;;;;15.86;65.79;101995.31;4976630;28;20038;-70
2022/10/27 04:57:28;;;;;;;28.15;26.60;;;;;;;15.85;65.81;101993.66;4975796;28;20037;-68
2022/10/27 04:59:54;;;;;;;28.60;26.63;;;;;;;15.84;65.70;101994.75;4976290;28;20467;-69
2022/10/27 05:02:19;;;;;;;29.65;27.83;;;;;;;15.84;65.87;101994.75;4976459;28;20395;-68
2022/10/27 05:04:44;;;;;;;27.65;25.95;;;;;;;15.82;65.80;101994.97;4976396;28;20391;-70
2022/10/27 05:07:10;;;;;;;28.25;26.27;;;;;;;15.82;66.15;101991.44;4975245;28;20114;-71
2022/10/27 05:09:35;;;;;;;29.05;27.35;;;;;;;15.80;66.01;101997.13;4976268;28;20070;-70
2022/10/27 05:12:00;;;;;;;28.70;26.88;;;;;;;15.79;66.04;101988.13;4976476;28;20038;-72
2022/10/27 05:14:26;;;;;;;28.08;26.25;;;;;;;15.79;65.64;101993.56;4975071;28;20067;-72
2022/10/27 05:16:51;;;;;;;27.98;26.27;;;;;;;15.79;65.98;101998.19;4976455;28;20043;-72
2022/10/27 05:19:16;;;;;;;26.67;25.23;;;;;;;15.78;65.74;101994.66;4975235;28;20034;-70
2022/10/27 05:21:42;;;;;;;28.42;26.70;;;;;;;15.77;66.02;101984.84;4976041;28;20042;-69
2022/10/27 05:24:07;;;;;;;27.27;25.45;;;;;;;15.76;66.02;101994.06;4975076;28;20119;-72
2022/10/27 05:26:33;;;;;;;28.73;27.00;;;;;;;15.76;66.00;101985.91;4976081;28;20117;-68
2022/10/27 05:28:58;;;;;;;29.70;27.73;;;;;;;15.75;66.03;101983.44;4976287;28;20477;-70
2022/10/27 05:31:24;;;;;;;27.65;26.02;;;;;;;15.75;65.75;101980.72;4975858;28;20041;-71
2022/10/27 05:33:49;;;;;;;27.73;25.98;;;;;;;15.74;66.06;101982.59;4975841;28;20487;-71
2022/10/27 05:36:14;;;;;;;26.35;24.75;;;;;;;15.72;65.84;101973.84;4976086;28;20551;-71
2022/10/27 05:38:40;;;;;;;29.65;27.35;;;;;;;15.73;65.79;101978.22;4975999;28;20476;-71
2022/10/27 05:41:05;;;;;;;27.42;25.95;;;;;;;15.72;66.05;101970.28;4974481;28;20127;-72
2022/10/27 05:43:31;;;;;;;28.08;26.30;;;;;;;15.72;66.17;101981.19;4975620;28;20034;-73
2022/10/27 05:45:56;;;;;;;26.98;25.48;;;;;;;15.70;66.11;101970.56;4974212;28;20159;-71
2022/10/27 05:48:21;;;;;;;27.83;26.33;;;;;;;15.70;65.77;101965.09;4975386;28;20039;-75
2022/10/27 05:50:53;;;;;;;27.83;25.73;;;;;;;15.70;65.99;101972.44;4975442;28;20055;-72
2022/10/27 05:53:19;;;;;;;27.50;26.10;;;;;;;15.69;65.67;101974.34;4975809;28;20112;-72
2022/10/27 05:55:45;;;;;;;27.60;26.10;;;;;;;15.69;66.07;101971.59;4975418;28;20035;-71
2022/10/27 05:58:10;;;;;;;28.23;26.73;;;;;;;15.69;65.90;101968.03;4975705;28;20077;-72
2022/10/27 06:00:38;;;;;;;28.38;26.77;;;;;;;15.67;66.06;101965.53;4974219;28;20060;-71
2022/10/27 06:03:05;;;;;;;27.65;26.05;;;;;;;15.67;66.00;101959.28;4974125;28;20023;-71
2022/10/27 06:05:34;;;;;;;26.67;25.27;;;;;;;15.67;66.03;101959.28;4975301;28;20031;-70
2022/10/27 06:07:59;;;;;;;29.05;27.27;;;;;;;15.65;65.87;101956.81;4975328;28;20026;-70
2022/10/27 06:10:26;;;;;;;27.40;26.00;;;;;;;15.65;65.96;101962.25;4975255;28;20034;-73
2022/10/27 06:12:58;;;;;;;27.65;26.15;;;;;;;15.64;66.01;101951.59;4974011;28;20039;-73
2022/10/27 06:15:24;;;;;;;26.95;25.35;;;;;;;15.63;66.02;101953.50;4974133;28;20031;-74
2022/10/27 06:17:52;;;;;;;28.75;26.92;;;;;;;15.63;65.80;101953.50;4975061;28;20382;-72
2022/10/27 06:20:17;;;;;;;27.73;26.23;;;;;;;15.62;65.81;101946.41;4973918;28;20215;-73
2022/10/27 06:22:45;;;;;;;28.25;26.48;;;;;;;15.62;66.00;101946.41;4975321;28;20117;-73
2022/10/27 06:25:11;;;;;;;25.37;23.97;;;;;;;15.61;65.85;101944.75;4974502;28;20414;-74
2022/10/27 06:27:36;;;;;;;27.50;25.92;;;;;;;15.59;65.81;101939.53;4973515;28;20475;-74
2022/10/27 06:30:01;;;;;;;27.90;25.95;;;;;;;15.60;66.11;101940.41;4974985;28;20464;-72
2022/10/27 06:32:27;;;;;;;26.25;24.75;;;;;;;15.56;65.76;101940.03;4975091;28;20415;-72
2022/10/27 06:34:52;;;;;;;27.27;25.77;;;;;;;15.57;65.88;101939.00;4973656;28;20037;-73
2022/10/27 06:37:17;;;;;;;25.95;24.55;;;;;;;15.57;65.90;101936.25;4957534;28;20073;-74
2022/10/27 06:39:43;;;;;;;28.98;27.38;;;;;;;15.57;65.74;101928.09;4974531;28;20031;-72
2022/10/27 06:42:08;;;;;;;28.42;26.92;;;;;;;15.57;65.61;101921.78;4975075;28;20043;-71
2022/10/27 06:44:34;;;;;;;26.67;25.05;;;;;;;15.56;66.10;101912.00;4974986;28;20078;-75
2022/10/27 06:46:59;;;;;;;26.67;25.17;;;;;;;15.55;65.75;101910.34;4973802;28;20371;-73
2022/10/27 06:49:24;;;;;;;27.20;25.80;;;;;;;15.54;65.83;101925.84;4974503;28;20478;-72
2022/10/27 06:51:50;;;;;;;28.20;26.63;;;;;;;15.53;65.64;101924.19;4974626;28;20031;-73
2022/10/27 06:54:15;;;;;;;26.60;25.13;;;;;;;15.53;65.80;101932.38;4974981;28;20090;-73
2022/10/27 06:56:40;;;;;;;26.75;25.30;;;;;;;15.53;66.11;101937.00;4973387;28;20105;-74
2022/10/27 06:59:06;;;;;;;25.02;23.08;;;;;;;15.51;65.79;101931.78;4973505;28;20077;-74
2022/10/27 07:01:31;;;;;;;26.17;24.65;;;;;;;15.51;66.03;101929.06;4974567;28;20093;-73
2022/10/27 07:03:57;;;;;;;26.13;24.50;;;;;;;15.52;66.00;101938.06;4973626;28;20038;-72
2022/10/27 07:06:23;;;;;;;25.85;24.27;;;;;;;15.50;65.89;101930.16;4973421;28;20459;-72
2022/10/27 07:08:48;;;;;;;27.45;25.83;;;;;;;15.50;65.79;101924.69;4973316;28;20126;-73
2022/10/27 07:11:14;;;;;;;25.92;24.52;;;;;;;15.50;66.14;101926.59;4974465;28;20042;-72
2022/10/27 07:13:39;;;;;;;27.25;25.42;;;;;;;15.49;65.77;101927.66;4974392;28;20038;-74
2022/10/27 07:16:05;;;;;;;26.13;24.52;;;;;;;15.49;65.58;101931.19;4973563;28;20039;-73
2022/10/27 07:18:32;;;;;;;26.08;24.67;;;;;;;15.48;66.08;101932.28;4974310;28;20035;-74
2022/10/27 07:20:57;;;;;;;24.73;23.13;;;;;;;15.48;65.78;101928.75;4975124;28;20066;-72
2022/10/27 07:23:22;;;;;;;25.88;24.48;;;;;;;15.48;65.69;101932.28;4974477;28;20188;-73
2022/10/27 07:25:49;;;;;;;26.42;24.92;;;;;;;15.47;65.86;101937.97;4974261;28;20558;-74
2022/10/27 07:28:14;;;;;;;26.17;24.58;;;;;;;15.46;65.64;101939.88;4973816;28;20494;-73
2022/10/27 07:30:43;;;;;;;26.95;25.30;;;;;;;15.46;65.81;101939.06;4973990;28;20058;-73
2022/10/27 07:33:12;;;;;;;26.75;25.35;;;;;;;15.45;66.27;101938.22;4974402;28;20035;-74
2022/10/27 07:35:39;;;;;;;25.80;24.40;;;;;;;15.46;66.12;101933.59;4972970;28;20039;-72
2022/10/27 07:38:06;;;;;;;27.30;25.85;;;;;;;15.45;65.78;101938.22;4974180;28;20033;-72
2022/10/27 07:40:33;;;;;;;26.85;25.35;;;;;;;15.44;66.03;101947.44;4974320;28;20035;-73
2022/10/27 07:42:59;;;;;;;26.33;24.38;;;;;;;15.43;66.11;101943.09;4974075;28;20187;-73
2022/10/27 07:45:26;;;;;;;25.63;23.80;;;;;;;15.43;66.07;101947.72;4973069;28;20027;-72
2022/10/27 07:47:53;;;;;;;27.98;26.38;;;;;;;15.44;65.82;101952.09;4974468;28;20027;-73
2022/10/27 07:50:21;;;;;;;25.60;24.15;;;;;;;15.43;66.28;101959.44;4976572;28;20059;-73
2022/10/27 07:52:51;;;;;;;29.83;27.85;;;;;;;15.44;66.02;101957.53;4977970;28;20109;-73
2022/10/27 07:55:19;;;;;;;25.52;24.10;;;;;;;15.44;66.34;101952.09;4977570;28;20039;-73
2022/10/27 07:57:45;;;;;;;27.23;25.63;;;;;;;15.43;66.36;101947.72;4977449;28;20041;-72
2022/10/27 08:00:16;;;;;;;27.25;25.63;;;;;;;15.42;66.33;101936.00;4977522;28;20035;-73
2022/10/27 08:02:42;;;;;;;26.40;24.92;;;;;;;15.42;66.00;101935.16;4977563;28;20058;-73
2022/10/27 08:05:08;;;;;;;26.08;24.45;;;;;;;15.41;66.27;101919.91;4977674;28;20026;-73
2022/10/27 08:07:34;;;;;;;25.88;24.48;;;;;;;15.40;66.41;101924.53;4976041;28;20082;-72
2022/10/27 08:09:59;;;;;;;24.80;23.38;;;;;;;15.40;66.02;101929.16;4975966;28;20030;-72
2022/10/27 08:12:25;;;;;;;25.80;24.42;;;;;;;15.40;66.32;101934.59;4977702;28;20038;-73
2022/10/27 08:14:51;;;;;;;27.48;25.88;;;;;;;15.40;66.34;101932.69;4976886;28;20034;-72
2022/10/27 08:17:16;;;;;;;25.88;24.48;;;;;;;15.39;66.25;101928.31;4976019;28;20030;-72
2022/10/27 08:19:42;;;;;;;28.10;26.30;;;;;;;15.40;66.14;101937.31;4976996;28;20034;-75
2022/10/27 08:22:08;;;;;;;25.90;24.50;;;;;;;15.39;66.07;101925.59;4975927;28;20136;-73
2022/10/27 08:24:33;;;;;;;27.83;25.65;;;;;;;15.39;66.20;101922.88;4975870;28;20138;-72
2022/10/27 08:26:59;;;;;;;27.00;25.08;;;;;;;15.39;66.41;101913.88;4977165;28;20035;-74
2022/10/27 08:29:25;;;;;;;25.65;24.23;;;;;;;15.39;66.55;101922.88;4976024;28;20035;-72
2022/10/27 08:31:51;;;;;;;27.35;25.65;;;;;;;15.40;66.59;101926.44;4976744;28;20113;-73
2022/10/27 08:34:16;;;;;;;24.83;23.42;;;;;;;15.40;66.70;101918.28;4975568;28;20435;-73
2022/10/27 08:36:42;;;;;;;26.00;24.52;;;;;;;15.40;66.66;101913.63;4976813;28;20066;-75
2022/10/27 08:39:08;;;;;;;27.15;25.73;;;;;;;15.41;66.82;101909.84;4975364;28;20117;-72
2022/10/27 08:41:38;;;;;;;27.10;25.58;;;;;;;15.41;66.58;101909.03;4976797;28;20078;-73
2022/10/27 08:44:37;;;;;;;25.80;24.40;;;;;;;15.40;66.82;101902.75;4975352;28;20030;-72
2022/10/27 08:47:05;;;;;;;26.95;24.80;;;;;;;15.39;66.67;101898.34;4976618;28;20034;-73
2022/10/27 08:49:43;;;;;;;27.38;25.67;;;;;;;15.39;66.84;101895.63;4976516;28;20062;-73
2022/10/27 08:52:21;;;;;;;27.08;24.75;;;;;;;15.41;66.81;101889.97;4975141;28;20482;-73
2022/10/27 08:54:52;;;;;;;26.07;24.50;;;;;;;15.41;66.72;101889.97;4975114;28;20546;-73
2022/10/27 08:57:27;;;;;;;26.30;24.88;;;;;;;15.43;66.82;101896.00;4977083;28;20113;-72
2022/10/27 08:59:54;;;;;;;27.15;25.65;;;;;;;15.41;67.04;101882.59;4975828;28;20038;-73
2022/10/27 09:02:47;;;;;;;26.40;24.90;;;;;;;15.44;67.03;101892.19;4975664;28;20553;-73
2022/10/27 09:05:20;;;;;;;27.92;26.13;;;;;;;15.44;66.83;101895.72;4976044;28;20471;-72
2022/10/27 09:08:12;;;;;;;27.90;26.08;;;;;;;15.44;67.19;101890.28;4975683;28;20031;-70
2022/10/27 09:10:41;;;;;;;25.10;23.80;;;;;;;15.45;67.13;101891.94;4976567;28;20030;-71
2022/10/27 09:13:17;;;;;;;25.55;23.90;;;;;;;15.45;67.34;101889.22;4976689;28;20054;-71
2022/10/27 09:15:47;;;;;;;26.55;24.73;;;;;;;15.47;67.44;101892.53;4976015;28;20031;-74
2022/10/27 09:18:47;;;;;;;25.98;24.42;;;;;;;15.48;67.72;101888.72;4976676;28;20073;-72
2022/10/27 09:21:19;;;;;;;26.10;24.52;;;;;;;15.48;67.17;101883.28;4933729;28;20497;-72
2022/10/27 09:23:50;;;;;;;25.98;24.33;;;;;;;15.49;67.78;101884.09;4976198;28;20107;-73
2022/10/27 09:26:19;;;;;;;25.63;24.02;;;;;;;15.50;67.54;101877.59;4974870;28;20035;-72
2022/10/27 09:28:50;;;;;;;26.67;24.88;;;;;;;15.51;67.75;101874.59;4976057;28;20035;-72
2022/10/27 09:31:27;;;;;;;26.55;25.00;;;;;;;15.52;68.09;101867.25;4976107;28;20058;-72
2022/10/27 09:34:00;;;;;;;27.73;25.98;;;;;;;15.53;68.20;101868.91;4976432;28;20111;-72
2022/10/27 09:36:25;;;;;;;26.05;24.50;;;;;;;15.54;67.84;101871.38;4975837;28;20031;-74
2022/10/27 09:38:51;;;;;;;27.30;25.42;;;;;;;15.55;68.25;101861.34;4975831;28;20034;-73
2022/10/27 09:41:16;;;;;;;26.25;24.55;;;;;;;15.56;68.28;101866.50;4976071;28;20050;-72
2022/10/27 09:43:42;;;;;;;26.95;25.50;;;;;;;15.56;68.55;101866.50;4974610;28;20071;-72
2022/10/27 09:46:26;;;;;;;26.23;24.90;;;;;;;15.60;69.17;101875.03;4975542;28;20061;-73
2022/10/27 09:48:56;;;;;;;27.67;26.00;;;;;;;15.61;68.79;101873.13;4976129;28;20117;-73
2022/10/27 09:51:32;;;;;;;26.08;24.48;;;;;;;15.63;69.13;101873.72;4975729;28;20043;-72
2022/10/27 09:53:59;;;;;;;28.25;26.17;;;;;;;15.64;69.12;101872.63;4975758;28;20042;-73
2022/10/27 09:56:28;;;;;;;27.90;26.05;;;;;;;15.66;69.42;101859.59;4974312;28;20122;-73
2022/10/27 09:58:57;;;;;;;27.42;25.92;;;;;;;15.67;69.00;101848.41;4975372;28;20027;-73
2022/10/27 10:01:29;;;;;;;27.90;25.90;;;;;;;15.69;69.31;101832.69;4975446;28;20038;-72
2022/10/27 10:04:04;;;;;;;28.10;26.33;;;;;;;15.72;69.46;101831.38;4975358;28;20034;-73
2022/10/27 10:06:34;;;;;;;26.00;24.38;;;;;;;15.74;69.30;101823.78;4975576;28;20387;-71
2022/10/27 10:09:24;;;;;;;28.65;26.95;;;;;;;15.77;69.67;101820.53;4976007;28;20027;-72
2022/10/27 10:11:50;;;;;;;26.95;25.30;;;;;;;15.78;69.18;101831.19;4974978;28;20411;-73
2022/10/27 10:14:23;;;;;;;28.65;26.98;;;;;;;15.81;69.25;101827.16;4974404;28;20035;-73
2022/10/27 10:16:51;;;;;;;27.88;25.98;;;;;;;15.82;69.55;101828.78;4973921;28;20126;-75
2022/10/27 10:19:22;;;;;;;27.80;26.15;;;;;;;15.85;69.56;101819.28;4974209;28;20038;-72
2022/10/27 10:21:57;;;;;;;29.48;27.40;;;;;;;15.86;69.42;101829.94;4975222;28;20486;-71
2022/10/27 10:24:38;;;;;;;29.27;26.63;;;;;;;15.89;70.01;101826.69;4975645;28;20026;-72
2022/10/27 10:27:05;;;;;;;29.02;26.95;;;;;;;15.90;69.52;101812.03;4975340;28;20352;-70
2022/10/27 10:29:35;;;;;;;27.30;25.65;;;;;;;15.93;69.51;101811.50;4975205;28;20094;-70
2022/10/27 10:32:11;;;;;;;27.20;25.70;;;;;;;15.95;69.80;101820.25;4975047;28;20379;-70
2022/10/27 10:34:37;;;;;;;26.65;25.17;;;;;;;15.98;69.89;101814.31;4974763;28;20062;-71
2022/10/27 10:37:23;;;;;;;28.92;26.95;;;;;;;16.00;69.71;101817.59;4973194;28;20122;-70
2022/10/27 10:39:48;;;;;;;27.90;26.15;;;;;;;16.04;69.65;101807.00;4975401;28;20082;-70
2022/10/27 10:42:17;;;;;;;29.08;26.95;;;;;;;16.06;70.09;101804.03;4974572;28;20411;-71
2022/10/27 10:44:44;;;;;;;26.98;25.55;;;;;;;16.09;70.14;101808.97;4974629;28;20460;-70
2022/10/27 10:47:25;;;;;;;28.40;26.83;;;;;;;16.11;70.10;101809.56;4973339;28;20054;-71
2022/10/27 10:49:57;;;;;;;27.67;26.13;;;;;;;16.14;69.89;101815.31;4974220;28;20089;-71
2022/10/27 10:52:27;;;;;;;28.20;26.58;;;;;;;16.17;70.32;101817.53;4974440;28;20043;-70
2022/10/27 10:54:53;;;;;;;27.40;25.73;;;;;;;16.19;70.12;101809.09;4973507;28;20045;-73
2022/10/27 10:57:24;;;;;;;29.85;27.65;;;;;;;16.21;70.08;101818.69;4973193;28;20035;-71
2022/10/27 10:59:53;;;;;;;28.17;26.17;;;;;;;16.23;70.76;101815.72;4974441;28;20026;-70
2022/10/27 11:02:38;;;;;;;26.90;25.08;;;;;;;16.27;70.32;101816.00;4973108;28;20035;-71
2022/10/27 11:05:11;;;;;;;29.33;27.10;;;;;;;16.29;70.35;101795.59;4974660;28;20055;-70
2022/10/27 11:07:37;;;;;;;26.45;24.95;;;;;;;16.32;69.92;101794.25;4974427;28;20037;-71
2022/10/27 11:10:12;;;;;;;29.67;27.83;;;;;;;16.34;70.54;101792.91;4974316;28;20113;-71
2022/10/27 11:13:11;;;;;;;27.73;26.00;;;;;;;16.37;70.49;101806.03;4974329;28;20038;-71
2022/10/27 11:16:03;;;;;;;27.65;25.92;;;;;;;16.39;70.18;101812.06;4965375;28;20047;-71
2022/10/27 11:18:41;;;;;;;27.92;26.33;;;;;;;16.42;70.08;101803.38;4974196;28;20038;-71